Time;durP1;ratioP1;P1;durP2;ratioP2;P2;SDS_P1;SDS_P2;PMS_P1;PMS_P2;Temp;Humidity;BMP_temperature;BMP_pressure;BME280_temperature;BME280_humidity;BME280_pressure;Samples;Min_cycle;Max_cycle;Signal;HPM_P1;HPM_P2
2021/07/15 00:00:57;;;;;;;0.80;0.70;;;13.50;99.90;;;;;;5029691;28;20212;-55
2021/07/15 00:03:29;;;;;;;0.60;0.60;;;13.50;99.90;;;;;;5020200;28;20677;-55
2021/07/15 00:05:55;;;;;;;0.60;0.60;;;13.50;99.90;;;;;;5026886;28;20177;-55
2021/07/15 00:08:24;;;;;;;0.60;0.60;;;13.50;99.90;;;;;;5022013;28;20692;-56
2021/07/15 00:11:01;;;;;;;1.03;0.60;;;13.50;99.90;;;;;;5023169;28;20513;-55
2021/07/15 00:13:27;;;;;;;0.60;0.60;;;13.50;99.90;;;;;;5025003;28;20430;-55
2021/07/15 00:15:56;;;;;;;0.60;0.60;;;13.50;99.90;;;;;;5039361;28;20425;-55
2021/07/15 00:18:25;;;;;;;0.90;0.70;;;13.50;99.90;;;;;;5027932;28;20442;-55
2021/07/15 00:20:51;;;;;;;0.90;0.90;;;13.50;99.90;;;;;;5030129;28;20426;-56
2021/07/15 00:23:17;;;;;;;0.63;0.63;;;13.50;99.90;;;;;;5029082;28;20476;-54
2021/07/15 00:25:45;;;;;;;0.77;0.60;;;13.50;99.90;;;;;;5015660;28;20171;-55
2021/07/15 00:28:11;;;;;;;0.70;0.60;;;13.50;99.90;;;;;;5017734;28;20446;-55
2021/07/15 00:30:37;;;;;;;0.70;0.60;;;13.40;99.90;;;;;;5032333;28;20426;-56
2021/07/15 00:33:03;;;;;;;0.63;0.60;;;13.40;99.90;;;;;;5052441;28;20415;-56
2021/07/15 00:35:30;;;;;;;1.87;0.60;;;13.40;99.90;;;;;;5044779;28;20171;-57
2021/07/15 00:37:56;;;;;;;0.60;0.60;;;13.40;99.90;;;;;;5047696;28;20533;-57
2021/07/15 00:40:21;;;;;;;0.60;0.60;;;13.40;99.90;;;;;;5020421;28;20423;-53
2021/07/15 00:42:47;;;;;;;0.70;0.60;;;13.40;99.90;;;;;;5027573;28;20207;-54
2021/07/15 00:45:14;;;;;;;0.60;0.60;;;13.40;99.90;;;;;;5031049;28;20275;-56
2021/07/15 00:47:40;;;;;;;0.60;0.60;;;13.40;99.90;;;;;;5018486;28;20208;-54
2021/07/15 00:50:08;;;;;;;0.60;0.60;;;13.40;99.90;;;;;;5027670;28;20426;-55
2021/07/15 00:52:35;;;;;;;2.97;0.77;;;13.40;99.90;;;;;;5030234;28;20186;-57
2021/07/15 00:55:01;;;;;;;0.60;0.60;;;13.40;99.90;;;;;;5051630;28;20434;-56
2021/07/15 00:57:27;;;;;;;0.60;0.60;;;13.40;99.90;;;;;;5060123;22;20497;-57
2021/07/15 00:59:53;;;;;;;2.10;0.60;;;13.40;99.90;;;;;;5068933;28;20424;-57
2021/07/15 01:02:19;;;;;;;0.83;0.80;;;13.40;99.90;;;;;;5068827;28;20180;-57
2021/07/15 01:04:45;;;;;;;1.83;0.67;;;13.30;99.90;;;;;;5066660;28;20425;-57
2021/07/15 01:07:11;;;;;;;0.60;0.60;;;13.30;99.90;;;;;;5064781;28;20277;-57
2021/07/15 01:09:37;;;;;;;0.70;0.60;;;13.30;99.90;;;;;;5053308;28;20545;-57
2021/07/15 01:12:29;;;;;;;0.60;0.60;;;13.40;99.90;;;;;;5068415;28;20272;-57
2021/07/15 01:15:05;;;;;;;1.20;0.70;;;13.40;99.90;;;;;;5032518;28;20435;-57
2021/07/15 01:17:43;;;;;;;0.60;0.60;;;13.40;99.90;;;;;;5032086;28;20437;-57
2021/07/15 01:20:32;;;;;;;0.60;0.60;;;13.40;99.90;;;;;;5016524;28;20631;-58
2021/07/15 01:23:14;;;;;;;0.80;0.70;;;13.40;99.90;;;;;;5035308;28;20490;-58
2021/07/15 01:26:22;;;;;;;0.70;0.70;;;13.40;99.90;;;;;;5035058;28;20481;-57
2021/07/15 01:28:53;;;;;;;0.80;0.70;;;13.40;99.90;;;;;;5030074;28;20828;-57
2021/07/15 01:31:22;;;;;;;0.90;0.57;;;13.40;99.90;;;;;;5041906;28;20550;-56
2021/07/15 01:33:48;;;;;;;0.90;0.60;;;13.40;99.90;;;;;;5023804;28;20477;-57
2021/07/15 01:36:22;;;;;;;1.80;0.60;;;13.40;99.90;;;;;;5035822;28;20833;-57
2021/07/15 01:38:54;;;;;;;1.17;0.60;;;13.40;99.90;;;;;;5044995;28;20429;-57
2021/07/15 01:41:32;;;;;;;0.60;0.60;;;13.40;99.90;;;;;;5047777;28;20418;-57
2021/07/15 01:44:22;;;;;;;0.70;0.60;;;13.40;99.90;;;;;;5039956;28;20468;-57
2021/07/15 01:46:50;;;;;;;0.60;0.60;;;13.40;99.90;;;;;;5033761;28;20473;-57
2021/07/15 01:49:17;;;;;;;0.73;0.60;;;13.40;99.90;;;;;;5037021;28;20502;-57
2021/07/15 01:51:42;;;;;;;0.60;0.60;;;13.40;99.90;;;;;;5031557;28;20429;-57
2021/07/15 01:54:08;;;;;;;0.70;0.60;;;13.40;99.90;;;;;;5038268;28;20438;-58
2021/07/15 01:56:38;;;;;;;0.70;0.60;;;13.30;99.90;;;;;;5029928;28;20195;-57
2021/07/15 01:59:06;;;;;;;1.03;0.67;;;13.30;99.90;;;;;;5028983;28;20427;-57
2021/07/15 02:01:34;;;;;;;0.60;0.57;;;13.30;99.90;;;;;;5026100;28;21010;-57
2021/07/15 02:04:02;;;;;;;0.60;0.60;;;13.30;99.90;;;;;;5029954;28;20538;-57
2021/07/15 02:06:31;;;;;;;0.70;0.60;;;13.30;99.90;;;;;;5043099;28;20437;-57
2021/07/15 02:09:00;;;;;;;2.40;0.70;;;13.30;99.90;;;;;;5033190;28;20472;-57
2021/07/15 02:11:33;;;;;;;0.60;0.60;;;13.40;99.90;;;;;;5038428;28;20480;-57
2021/07/15 02:14:07;;;;;;;0.60;0.60;;;13.40;99.90;;;;;;5034283;28;20439;-57
2021/07/15 02:16:35;;;;;;;0.80;0.70;;;13.30;99.90;;;;;;5032090;28;20426;-57
2021/07/15 02:19:02;;;;;;;1.00;0.80;;;13.30;99.90;;;;;;5031667;28;20984;-57
2021/07/15 02:21:31;;;;;;;0.80;0.67;;;13.30;99.90;;;;;;5037770;28;20429;-57
2021/07/15 02:23:59;;;;;;;1.90;0.60;;;13.30;99.90;;;;;;5017274;28;20981;-57
2021/07/15 02:26:28;;;;;;;1.07;0.63;;;13.30;99.90;;;;;;5029879;28;21001;-57
2021/07/15 02:28:55;;;;;;;0.90;0.60;;;13.40;99.90;;;;;;5012184;28;20489;-57
2021/07/15 02:31:30;;;;;;;1.33;0.77;;;13.40;99.90;;;;;;5052335;28;20458;-57
2021/07/15 02:33:59;;;;;;;0.67;0.67;;;13.40;99.90;;;;;;5043695;28;20424;-57
2021/07/15 02:36:28;;;;;;;0.70;0.70;;;13.40;99.90;;;;;;5046258;28;20425;-57
2021/07/15 02:38:56;;;;;;;4.57;0.70;;;13.30;99.90;;;;;;5040248;28;20469;-57
2021/07/15 02:41:22;;;;;;;3.60;0.83;;;13.40;99.90;;;;;;5041988;28;20947;-57
2021/07/15 02:43:47;;;;;;;1.53;0.70;;;13.40;99.90;;;;;;5029428;28;20478;-57
2021/07/15 02:46:14;;;;;;;4.00;0.73;;;13.40;99.90;;;;;;5028739;28;20184;-56
2021/07/15 02:48:40;;;;;;;0.60;0.60;;;13.40;99.90;;;;;;5029739;28;20227;-57
2021/07/15 02:51:05;;;;;;;0.60;0.60;;;13.30;99.90;;;;;;5026471;28;20441;-57
2021/07/15 02:53:31;;;;;;;0.60;0.60;;;13.30;99.90;;;;;;5033884;28;20176;-56
2021/07/15 02:56:36;;;;;;;0.70;0.70;;;13.30;99.90;;;;;;5044129;28;20258;-57
2021/07/15 02:59:23;;;;;;;0.60;0.60;;;13.30;99.90;;;;;;4978553;28;20480;-57
2021/07/15 03:01:51;;;;;;;0.77;0.67;;;13.30;99.90;;;;;;4983621;28;20515;-56
2021/07/15 03:04:25;;;;;;;0.60;0.60;;;13.30;99.90;;;;;;5014648;28;20487;-57
2021/07/15 03:06:52;;;;;;;0.70;0.70;;;13.30;99.90;;;;;;5033931;28;20588;-57
2021/07/15 03:09:30;;;;;;;0.60;0.60;;;13.30;99.90;;;;;;5046759;28;20710;-57
2021/07/15 03:12:00;;;;;;;0.90;0.80;;;13.30;99.90;;;;;;5037899;28;20426;-56
2021/07/15 03:14:37;;;;;;;0.70;0.70;;;13.30;99.90;;;;;;5027643;28;20488;-57
2021/07/15 03:17:05;;;;;;;0.60;0.60;;;13.20;99.90;;;;;;5030298;28;20929;-56
2021/07/15 03:19:32;;;;;;;0.60;0.60;;;13.20;99.90;;;;;;5013240;28;20425;-57
2021/07/15 03:22:01;;;;;;;0.83;0.83;;;13.30;99.90;;;;;;5033410;28;20953;-57
2021/07/15 03:24:28;;;;;;;1.23;0.83;;;13.20;99.90;;;;;;5031967;28;20487;-57
2021/07/15 03:26:56;;;;;;;1.03;0.60;;;13.30;99.90;;;;;;5028914;28;20449;-57
2021/07/15 03:29:23;;;;;;;2.93;0.60;;;13.30;99.90;;;;;;5038786;28;20858;-57
2021/07/15 03:31:48;;;;;;;3.73;1.53;;;13.30;99.90;;;;;;5038718;28;20430;-57
2021/07/15 03:34:16;;;;;;;0.60;0.60;;;13.30;99.90;;;;;;5033540;28;20423;-58
2021/07/15 03:36:47;;;;;;;0.60;0.60;;;13.30;99.90;;;;;;5036205;28;20179;-57
2021/07/15 03:39:15;;;;;;;0.77;0.60;;;13.30;99.90;;;;;;5028319;28;20463;-57
2021/07/15 03:41:42;;;;;;;0.60;0.60;;;13.30;99.90;;;;;;5049713;28;20428;-57
2021/07/15 03:44:08;;;;;;;0.70;0.70;;;13.30;99.90;;;;;;5053635;28;20461;-58
2021/07/15 03:46:34;;;;;;;3.23;0.70;;;13.30;99.90;;;;;;5032437;28;21002;-57
2021/07/15 03:49:01;;;;;;;1.03;0.90;;;13.30;99.90;;;;;;5021036;28;20520;-57
2021/07/15 03:51:27;;;;;;;1.03;0.70;;;13.30;99.90;;;;;;5039539;28;20492;-57
2021/07/15 03:53:53;;;;;;;2.53;1.03;;;13.30;99.90;;;;;;5039435;28;20446;-57
2021/07/15 03:56:21;;;;;;;0.80;0.70;;;13.30;99.90;;;;;;5034147;28;20203;-57
2021/07/15 03:58:47;;;;;;;0.70;0.70;;;13.30;99.90;;;;;;5029858;28;20569;-57
2021/07/15 04:01:14;;;;;;;0.60;0.60;;;13.30;99.90;;;;;;5034798;28;20434;-58
2021/07/15 04:03:44;;;;;;;0.57;0.57;;;13.40;99.90;;;;;;5016716;28;20453;-56
2021/07/15 04:06:11;;;;;;;8.03;0.80;;;13.40;99.90;;;;;;5032905;28;20454;-57
2021/07/15 04:08:43;;;;;;;1.10;0.70;;;13.40;99.90;;;;;;5037473;28;20446;-56
2021/07/15 04:11:09;;;;;;;1.73;0.60;;;13.40;99.90;;;;;;5041399;28;20419;-57
2021/07/15 04:13:39;;;;;;;2.30;0.70;;;13.40;99.90;;;;;;5041598;28;20438;-56
2021/07/15 04:16:22;;;;;;;0.67;0.67;;;13.40;99.90;;;;;;5033525;28;20918;-56
2021/07/15 04:18:51;;;;;;;1.43;0.67;;;13.50;99.90;;;;;;5023095;28;20457;-55
2021/07/15 04:21:18;;;;;;;0.83;0.83;;;13.40;99.90;;;;;;5041772;28;20483;-55
2021/07/15 04:23:46;;;;;;;0.83;0.70;;;13.40;99.90;;;;;;5019166;28;20462;-58
2021/07/15 04:26:13;;;;;;;0.97;0.87;;;13.50;99.90;;;;;;5007702;28;20431;-57
2021/07/15 04:28:39;;;;;;;0.80;0.70;;;13.40;99.90;;;;;;5011590;28;20450;-57
2021/07/15 04:31:31;;;;;;;2.37;0.63;;;13.50;99.90;;;;;;5029080;28;20437;-57
2021/07/15 04:33:59;;;;;;;0.70;0.70;;;13.40;99.90;;;;;;5030684;28;20479;-57
2021/07/15 04:36:28;;;;;;;0.70;0.70;;;13.50;99.90;;;;;;5015565;28;20457;-57
2021/07/15 04:38:54;;;;;;;4.77;0.70;;;13.50;99.90;;;;;;5026907;28;20996;-58
2021/07/15 04:41:20;;;;;;;2.20;0.80;;;13.50;99.90;;;;;;5023423;28;20452;-55
2021/07/15 04:43:48;;;;;;;0.70;0.70;;;13.50;99.90;;;;;;5021662;28;20519;-56
2021/07/15 04:46:17;;;;;;;0.70;0.70;;;13.50;99.90;;;;;;5028691;28;20442;-59
2021/07/15 04:48:43;;;;;;;0.60;0.60;;;13.60;99.90;;;;;;5026167;28;20456;-57
2021/07/15 04:51:13;;;;;;;0.90;0.80;;;13.60;99.90;;;;;;5046214;28;20433;-57
2021/07/15 04:53:39;;;;;;;0.70;0.70;;;13.60;99.90;;;;;;5045686;28;20417;-57
2021/07/15 04:56:06;;;;;;;0.97;0.90;;;13.60;99.90;;;;;;5012612;28;20438;-57
2021/07/15 04:58:32;;;;;;;0.77;0.77;;;13.70;99.90;;;;;;5034263;28;20957;-56
2021/07/15 05:00:59;;;;;;;1.53;0.97;;;13.70;99.90;;;;;;5031931;28;20438;-56
2021/07/15 05:03:30;;;;;;;0.83;0.70;;;13.70;99.90;;;;;;5035028;28;20965;-57
2021/07/15 05:05:56;;;;;;;1.07;1.07;;;13.70;99.90;;;;;;5040843;28;20433;-57
2021/07/15 05:08:22;;;;;;;0.80;0.80;;;13.70;99.90;;;;;;5058950;28;20474;-58
2021/07/15 05:10:48;;;;;;;0.60;0.60;;;13.70;99.90;;;;;;5051015;28;20461;-57
2021/07/15 05:13:14;;;;;;;0.60;0.60;;;13.80;99.90;;;;;;5039156;28;20499;-57
2021/07/15 05:15:40;;;;;;;0.60;0.60;;;13.80;99.90;;;;;;5038430;28;20171;-57
2021/07/15 05:18:05;;;;;;;0.70;0.60;;;13.70;99.90;;;;;;5046565;28;20546;-57
2021/07/15 05:20:31;;;;;;;2.73;0.80;;;13.80;99.90;;;;;;5034137;28;20179;-57
2021/07/15 05:22:57;;;;;;;1.00;0.80;;;13.80;99.90;;;;;;5029653;28;20204;-58
2021/07/15 05:25:22;;;;;;;0.73;0.73;;;13.80;99.90;;;;;;5037164;28;20179;-57
2021/07/15 05:27:48;;;;;;;0.60;0.60;;;13.80;99.90;;;;;;5040318;28;20208;-58
2021/07/15 05:30:15;;;;;;;0.70;0.70;;;13.80;99.90;;;;;;5032454;28;20186;-57
2021/07/15 05:32:40;;;;;;;0.80;0.70;;;13.90;99.90;;;;;;5039631;28;20433;-57
2021/07/15 05:35:07;;;;;;;1.70;0.60;;;13.90;99.90;;;;;;5048549;28;20457;-57
2021/07/15 05:37:34;;;;;;;0.80;0.80;;;13.90;99.90;;;;;;5052102;28;20206;-58
2021/07/15 05:40:00;;;;;;;1.07;0.60;;;13.90;99.90;;;;;;5049919;28;20441;-59
2021/07/15 05:42:25;;;;;;;1.00;0.70;;;13.90;99.90;;;;;;5053767;28;20422;-58
2021/07/15 05:44:52;;;;;;;0.60;0.60;;;13.90;99.90;;;;;;5038152;28;20201;-56
2021/07/15 05:47:18;;;;;;;1.70;0.70;;;13.90;99.90;;;;;;5028175;28;20262;-57
2021/07/15 05:49:44;;;;;;;0.80;0.80;;;13.90;99.90;;;;;;5040084;28;20842;-57
2021/07/15 05:52:11;;;;;;;3.03;0.70;;;13.90;99.90;;;;;;5043393;28;20183;-58
2021/07/15 05:54:38;;;;;;;1.10;0.77;;;13.90;99.90;;;;;;5022621;28;20446;-57
2021/07/15 05:57:07;;;;;;;0.70;0.70;;;13.90;99.90;;;;;;5045253;28;20490;-57
2021/07/15 05:59:33;;;;;;;1.63;0.70;;;13.90;99.90;;;;;;5047868;28;20535;-57
2021/07/15 06:01:59;;;;;;;0.83;0.70;;;13.90;99.90;;;;;;5046420;28;21168;-58
2021/07/15 06:04:25;;;;;;;2.77;0.80;;;13.90;99.90;;;;;;5042474;28;20278;-57
2021/07/15 06:06:50;;;;;;;0.80;0.70;;;14.00;99.90;;;;;;5036309;28;20570;-57
2021/07/15 06:09:16;;;;;;;0.80;0.80;;;14.00;99.90;;;;;;5030430;28;20266;-57
2021/07/15 06:11:42;;;;;;;1.20;0.90;;;14.00;99.90;;;;;;5035323;28;20258;-57
2021/07/15 06:14:07;;;;;;;1.23;0.70;;;14.10;99.90;;;;;;5024876;28;20604;-57
2021/07/15 06:16:33;;;;;;;0.70;0.63;;;14.10;99.90;;;;;;5007307;28;20183;-57
2021/07/15 06:18:59;;;;;;;1.47;0.70;;;14.20;99.90;;;;;;5036563;28;20176;-57
2021/07/15 06:21:24;;;;;;;0.70;0.70;;;14.20;99.90;;;;;;5038960;28;20552;-57
2021/07/15 06:23:50;;;;;;;1.17;0.63;;;14.30;99.90;;;;;;5033219;28;20233;-57
2021/07/15 06:26:15;;;;;;;0.60;0.60;;;14.30;99.90;;;;;;5035670;28;20176;-57
2021/07/15 06:28:41;;;;;;;1.13;0.70;;;14.30;99.90;;;;;;5031668;28;22140;-57
2021/07/15 06:31:07;;;;;;;1.57;1.13;;;14.30;99.90;;;;;;5038275;28;20175;-57
2021/07/15 06:33:32;;;;;;;0.90;0.67;;;14.30;99.90;;;;;;5036430;28;20415;-56
2021/07/15 06:36:00;;;;;;;2.13;0.80;;;14.40;99.90;;;;;;5044717;28;20183;-56
2021/07/15 06:38:29;;;;;;;1.97;0.70;;;14.40;99.90;;;;;;5033515;28;20194;-57
2021/07/15 06:41:00;;;;;;;1.80;0.80;;;14.40;99.90;;;;;;5039120;28;22344;-57
2021/07/15 06:43:26;;;;;;;0.80;0.60;;;14.40;99.90;;;;;;5034975;28;20454;-57
2021/07/15 06:45:51;;;;;;;0.70;0.70;;;14.40;99.90;;;;;;5041646;28;20441;-57
2021/07/15 06:48:17;;;;;;;2.30;0.80;;;14.40;99.90;;;;;;5038726;28;20199;-56
2021/07/15 06:50:43;;;;;;;0.80;0.70;;;14.40;99.90;;;;;;5036366;28;20636;-57
2021/07/15 06:53:11;;;;;;;0.87;0.60;;;14.40;99.90;;;;;;5043603;28;20945;-56
2021/07/15 06:55:37;;;;;;;0.60;0.60;;;14.40;99.90;;;;;;5014950;28;20172;-57
2021/07/15 06:58:06;;;;;;;3.20;0.77;;;14.40;99.90;;;;;;5032868;28;20504;-57
2021/07/15 07:00:32;;;;;;;0.80;0.70;;;14.40;99.90;;;;;;5029861;28;20179;-57
2021/07/15 07:02:57;;;;;;;2.50;0.70;;;14.50;99.90;;;;;;5031490;28;20863;-56
2021/07/15 07:05:23;;;;;;;4.40;0.90;;;14.40;99.90;;;;;;5041388;28;20435;-57
2021/07/15 07:07:49;;;;;;;0.80;0.80;;;14.50;99.90;;;;;;5042271;28;20209;-57
2021/07/15 07:10:18;;;;;;;0.77;0.77;;;14.50;99.90;;;;;;5034174;28;20188;-57
2021/07/15 07:12:44;;;;;;;0.77;0.77;;;14.50;99.90;;;;;;5025257;28;20221;-57
2021/07/15 07:15:12;;;;;;;0.70;0.70;;;14.60;99.90;;;;;;5055557;28;20417;-57
2021/07/15 07:17:38;;;;;;;0.90;0.60;;;14.60;99.90;;;;;;5051001;28;20449;-57
2021/07/15 07:20:09;;;;;;;1.50;0.80;;;14.60;99.90;;;;;;5034790;28;20435;-57
2021/07/15 07:22:35;;;;;;;1.17;0.70;;;14.70;99.90;;;;;;5035538;28;20195;-57
2021/07/15 07:25:01;;;;;;;2.40;0.60;;;14.70;99.90;;;;;;5033893;28;20954;-56
2021/07/15 07:27:27;;;;;;;0.60;0.60;;;14.60;99.90;;;;;;5024347;28;20445;-57
2021/07/15 07:29:54;;;;;;;0.70;0.70;;;14.60;99.90;;;;;;5046121;28;20644;-57
2021/07/15 07:32:20;;;;;;;1.00;0.70;;;14.60;99.90;;;;;;5058774;28;20448;-57
2021/07/15 07:34:45;;;;;;;0.70;0.70;;;14.60;99.90;;;;;;5046683;28;20454;-57
2021/07/15 07:37:11;;;;;;;0.60;0.60;;;14.60;99.90;;;;;;5037196;28;20285;-57
2021/07/15 07:39:36;;;;;;;1.27;0.80;;;14.60;99.90;;;;;;5038175;28;20195;-57
2021/07/15 07:42:02;;;;;;;2.03;0.70;;;14.60;99.90;;;;;;5043701;28;20640;-56
2021/07/15 07:44:28;;;;;;;0.70;0.70;;;14.70;99.90;;;;;;5050390;28;20199;-57
2021/07/15 07:46:54;;;;;;;0.60;0.60;;;14.70;99.90;;;;;;5048192;28;20828;-57
2021/07/15 07:49:19;;;;;;;0.70;0.60;;;14.70;99.90;;;;;;5032807;28;20202;-57
2021/07/15 07:51:45;;;;;;;1.03;0.80;;;14.80;99.90;;;;;;5051660;28;20221;-57
2021/07/15 07:54:11;;;;;;;0.80;0.70;;;14.90;99.90;;;;;;5042234;28;20186;-59
2021/07/15 07:56:36;;;;;;;0.60;0.60;;;14.90;99.90;;;;;;5052063;28;20447;-56
2021/07/15 07:59:03;;;;;;;1.30;0.77;;;15.00;99.90;;;;;;5033383;28;20667;-57
2021/07/15 08:01:29;;;;;;;0.90;0.63;;;15.00;99.90;;;;;;5042884;28;20511;-56
2021/07/15 08:03:55;;;;;;;1.00;0.80;;;15.10;99.90;;;;;;5034911;28;20457;-56
2021/07/15 08:06:22;;;;;;;1.13;0.70;;;15.10;99.90;;;;;;5036393;28;20808;-57
2021/07/15 08:08:47;;;;;;;1.10;0.67;;;15.10;99.90;;;;;;5031132;28;20450;-57
2021/07/15 08:11:15;;;;;;;5.13;0.70;;;15.10;99.90;;;;;;5031971;28;20422;-56
2021/07/15 08:13:41;;;;;;;0.80;0.70;;;15.10;99.90;;;;;;5037362;28;20232;-57
2021/07/15 08:16:07;;;;;;;0.70;0.60;;;15.10;99.90;;;;;;5044069;28;20433;-57
2021/07/15 08:18:33;;;;;;;0.70;0.70;;;15.10;99.90;;;;;;5042541;28;20656;-57
2021/07/15 08:20:58;;;;;;;0.80;0.70;;;15.20;99.90;;;;;;5043167;28;20465;-57
2021/07/15 08:23:24;;;;;;;0.73;0.73;;;15.20;99.90;;;;;;5037778;28;20207;-58
2021/07/15 08:25:50;;;;;;;0.60;0.60;;;15.30;99.90;;;;;;5024917;28;20262;-57
2021/07/15 08:28:15;;;;;;;1.33;0.60;;;15.50;99.90;;;;;;5018041;28;20423;-57
2021/07/15 08:30:41;;;;;;;1.00;0.70;;;15.50;99.90;;;;;;5054535;28;20175;-57
2021/07/15 08:33:07;;;;;;;1.20;0.67;;;15.70;99.90;;;;;;5046783;28;20270;-58
2021/07/15 08:35:33;;;;;;;0.60;0.60;;;15.80;99.90;;;;;;5027273;28;20196;-57
2021/07/15 08:37:59;;;;;;;3.80;0.80;;;15.90;99.90;;;;;;5034151;28;20210;-57
2021/07/15 08:40:26;;;;;;;0.70;0.70;;;16.00;99.90;;;;;;5033926;28;20926;-56
2021/07/15 08:42:53;;;;;;;1.47;0.80;;;16.00;99.90;;;;;;5049075;28;20461;-57
2021/07/15 08:45:19;;;;;;;0.70;0.70;;;16.10;99.90;;;;;;5039680;28;20425;-56
2021/07/15 08:47:46;;;;;;;0.70;0.70;;;16.10;99.90;;;;;;5021773;28;21006;-57
2021/07/15 08:50:17;;;;;;;0.60;0.60;;;16.10;99.90;;;;;;5038899;28;20898;-58
2021/07/15 08:52:43;;;;;;;0.80;0.80;;;16.10;99.90;;;;;;5023001;28;20465;-57
2021/07/15 08:57:37;;;;;;;1.13;0.80;;;16.20;99.90;;;;;;5038655;28;20463;-57
2021/07/15 09:00:15;;;;;;;0.83;0.80;;;16.20;99.90;;;;;;5043457;28;20414;-57
2021/07/15 09:02:42;;;;;;;0.80;0.77;;;16.30;99.90;;;;;;5022842;28;20434;-57
2021/07/15 09:05:09;;;;;;;0.80;0.80;;;16.40;99.90;;;;;;5027203;28;20445;-57
2021/07/15 09:07:38;;;;;;;1.00;0.70;;;16.50;99.90;;;;;;5027035;28;20549;-57
2021/07/15 09:10:04;;;;;;;0.80;0.80;;;16.70;99.90;;;;;;5042437;28;20980;-56
2021/07/15 09:12:30;;;;;;;0.80;0.80;;;16.70;99.90;;;;;;5034172;28;20426;-57
2021/07/15 09:14:56;;;;;;;1.33;0.80;;;16.70;99.90;;;;;;5030216;28;20442;-56
2021/07/15 09:17:33;;;;;;;0.80;0.80;;;16.60;99.90;;;;;;5045004;28;20199;-57
2021/07/15 09:20:00;;;;;;;1.07;0.90;;;16.60;99.90;;;;;;5035796;28;20417;-57
2021/07/15 09:22:26;;;;;;;1.27;1.07;;;16.50;99.90;;;;;;5023370;28;20481;-56
2021/07/15 09:24:52;;;;;;;0.80;0.80;;;16.40;99.90;;;;;;5029227;28;20560;-57
2021/07/15 09:27:24;;;;;;;3.80;1.00;;;16.40;99.90;;;;;;5029400;28;20450;-57
2021/07/15 09:30:13;;;;;;;0.80;0.80;;;16.40;99.90;;;;;;5030675;28;20518;-57
2021/07/15 09:33:02;;;;;;;1.03;0.80;;;16.50;99.90;;;;;;5045743;28;20417;-57
2021/07/15 09:35:31;;;;;;;0.73;0.73;;;16.70;99.90;;;;;;5029831;28;20505;-57
2021/07/15 09:38:14;;;;;;;1.00;0.90;;;16.80;99.90;;;;;;5032906;28;20488;-57
2021/07/15 09:40:42;;;;;;;1.60;0.90;;;16.90;99.90;;;;;;5028958;28;20425;-56
2021/07/15 09:43:13;;;;;;;1.00;0.90;;;17.00;99.90;;;;;;5041082;28;20488;-57
2021/07/15 09:45:38;;;;;;;0.97;0.70;;;17.20;99.90;;;;;;5035554;28;20841;-57
2021/07/15 09:48:19;;;;;;;0.90;0.87;;;17.30;99.90;;;;;;5032854;28;20460;-57
2021/07/15 09:50:46;;;;;;;2.07;0.80;;;17.40;99.90;;;;;;5038733;28;20180;-57
2021/07/15 09:53:21;;;;;;;0.80;0.80;;;17.40;99.90;;;;;;5041984;28;20484;-57
2021/07/15 09:55:56;;;;;;;0.80;0.80;;;17.30;99.90;;;;;;5031521;28;20455;-59
2021/07/15 09:58:23;;;;;;;0.70;0.70;;;17.30;99.90;;;;;;5049093;28;20533;-57
2021/07/15 10:00:49;;;;;;;7.90;0.90;;;17.30;99.90;;;;;;5051556;28;20854;-57
2021/07/15 10:03:16;;;;;;;0.90;0.90;;;17.30;99.90;;;;;;5019105;28;20222;-57
2021/07/15 10:05:50;;;;;;;0.80;0.80;;;17.40;99.90;;;;;;5034654;28;20180;-57
2021/07/15 10:08:24;;;;;;;1.00;0.90;;;17.50;99.90;;;;;;5037523;28;20499;-57
2021/07/15 10:10:50;;;;;;;0.80;0.80;;;17.60;99.90;;;;;;5045895;28;20795;-58
2021/07/15 10:13:18;;;;;;;0.97;0.83;;;17.70;99.90;;;;;;5032430;28;20471;-57
2021/07/15 10:15:45;;;;;;;4.40;1.00;;;17.90;99.90;;;;;;5039252;28;20184;-57
2021/07/15 10:18:11;;;;;;;0.90;0.90;;;18.00;99.90;;;;;;5041635;28;20456;-58
2021/07/15 10:20:38;;;;;;;0.80;0.80;;;18.10;99.90;;;;;;5047269;28;20476;-58
2021/07/15 10:23:04;;;;;;;3.77;1.30;;;18.20;99.90;;;;;;5032149;28;20934;-58
2021/07/15 10:25:30;;;;;;;0.90;0.90;;;18.10;99.90;;;;;;5029110;28;20422;-58
2021/07/15 10:27:57;;;;;;;0.97;0.90;;;18.00;99.90;;;;;;5032602;28;20458;-58
2021/07/15 10:30:23;;;;;;;1.47;0.93;;;17.90;99.90;;;;;;5031867;28;20465;-59
2021/07/15 10:32:50;;;;;;;5.27;0.90;;;17.80;99.90;;;;;;5030105;28;20434;-59
2021/07/15 10:35:16;;;;;;;0.97;0.80;;;17.60;99.90;;;;;;5028787;28;20411;-58
2021/07/15 10:37:47;;;;;;;1.13;1.03;;;17.50;99.90;;;;;;5036263;28;20441;-59
2021/07/15 10:40:15;;;;;;;1.17;1.10;;;17.40;99.90;;;;;;5026006;28;20521;-58
2021/07/15 10:42:42;;;;;;;2.00;0.87;;;17.30;99.90;;;;;;5034325;28;20424;-58
2021/07/15 10:45:10;;;;;;;0.70;0.70;;;17.30;99.90;;;;;;5056080;28;20451;-58
2021/07/15 10:47:37;;;;;;;0.93;0.93;;;17.30;99.90;;;;;;5044906;28;20437;-58
2021/07/15 10:50:04;;;;;;;1.20;0.80;;;17.40;99.90;;;;;;5035859;28;20469;-58
2021/07/15 10:52:32;;;;;;;0.93;0.93;;;17.50;99.90;;;;;;5047044;28;20429;-58
2021/07/15 10:55:00;;;;;;;1.10;0.90;;;17.60;99.90;;;;;;5050900;28;20505;-58
2021/07/15 10:57:26;;;;;;;1.70;0.90;;;17.70;99.90;;;;;;5041768;28;20469;-58
2021/07/15 10:59:52;;;;;;;1.20;1.10;;;17.80;99.90;;;;;;5036132;28;20848;-58
2021/07/15 11:02:25;;;;;;;1.03;0.77;;;17.90;99.90;;;;;;5029835;28;20430;-59
2021/07/15 11:04:54;;;;;;;1.27;0.80;;;18.00;99.90;;;;;;5034880;28;20203;-58
2021/07/15 11:07:24;;;;;;;0.80;0.80;;;18.00;99.90;;;;;;5057481;28;20482;-58
2021/07/15 11:09:52;;;;;;;0.93;0.70;;;18.10;99.90;;;;;;5038408;28;20950;-58
2021/07/15 11:12:36;;;;;;;0.80;0.80;;;18.20;99.90;;;;;;5034161;28;20414;-59
2021/07/15 11:15:13;;;;;;;0.80;0.80;;;18.30;99.90;;;;;;5040067;28;20460;-58
2021/07/15 11:17:46;;;;;;;1.03;0.90;;;18.30;99.90;;;;;;5029392;28;20496;-58
2021/07/15 11:20:17;;;;;;;1.13;1.03;;;18.30;99.90;;;;;;5029142;28;20433;-58
2021/07/15 11:22:46;;;;;;;4.20;0.90;;;18.30;99.90;;;;;;5033173;28;20491;-58
2021/07/15 11:25:27;;;;;;;0.90;0.90;;;18.30;99.90;;;;;;5042898;28;20425;-58
2021/07/15 11:27:54;;;;;;;1.33;0.80;;;18.50;99.90;;;;;;5042115;28;20544;-58
2021/07/15 11:30:34;;;;;;;1.10;0.80;;;18.60;99.90;;;;;;5039880;28;20842;-58
2021/07/15 11:33:19;;;;;;;1.10;0.80;;;18.70;99.90;;;;;;5046594;28;20527;-58
2021/07/15 11:36:01;;;;;;;1.30;1.20;;;18.80;99.90;;;;;;5035705;28;20969;-58
2021/07/15 11:38:38;;;;;;;1.87;1.57;;;18.80;99.90;;;;;;5037227;28;20449;-59
2021/07/15 11:41:15;;;;;;;2.17;0.90;;;18.90;99.90;;;;;;5042638;28;20818;-58
2021/07/15 11:43:47;;;;;;;1.07;0.97;;;19.10;99.90;;;;;;5036738;28;20954;-59
2021/07/15 11:46:15;;;;;;;0.83;0.77;;;19.10;99.90;;;;;;5043479;28;20914;-58
2021/07/15 11:49:26;;;;;;;1.20;1.07;;;19.10;99.90;;;;;;5032045;28;20454;-58
2021/07/15 11:51:51;;;;;;;1.20;1.10;;;19.10;99.90;;;;;;5031842;28;20422;-58
2021/07/15 11:54:22;;;;;;;0.87;0.87;;;19.20;99.90;;;;;;5035960;28;20484;-58
2021/07/15 11:57:07;;;;;;;0.90;0.90;;;19.30;99.90;;;;;;5041214;28;20215;-58
2021/07/15 11:59:41;;;;;;;1.10;1.00;;;19.30;99.90;;;;;;5040809;28;20444;-59
2021/07/15 12:02:20;;;;;;;1.03;0.93;;;19.40;99.90;;;;;;5033580;28;20992;-59
2021/07/15 12:05:14;;;;;;;1.23;1.00;;;19.40;99.90;;;;;;5034015;28;20462;-58
2021/07/15 12:08:09;;;;;;;1.30;1.20;;;19.80;99.90;;;;;;5020061;28;20478;-58
2021/07/15 12:10:46;;;;;;;1.47;1.10;;;20.20;99.90;;;;;;5036119;28;20437;-58
2021/07/15 12:13:14;;;;;;;0.83;0.83;;;20.60;99.90;;;;;;5044443;28;20425;-58
2021/07/15 12:15:43;;;;;;;0.93;0.90;;;20.70;99.90;;;;;;5041011;28;20433;-58
2021/07/15 12:18:20;;;;;;;1.00;1.00;;;20.70;99.90;;;;;;5047432;28;20453;-58
2021/07/15 12:20:51;;;;;;;1.20;1.10;;;20.50;98.80;;;;;;5032661;28;20907;-58
2021/07/15 12:23:20;;;;;;;3.80;1.00;;;20.30;99.40;;;;;;5035679;28;20493;-58
2021/07/15 12:25:49;;;;;;;1.00;1.00;;;20.10;99.90;;;;;;5028230;28;20449;-58
2021/07/15 12:28:17;;;;;;;1.10;1.00;;;20.00;99.90;;;;;;5037062;28;20801;-57
2021/07/15 12:30:46;;;;;;;0.93;0.93;;;20.10;99.90;;;;;;5042385;28;20529;-58
2021/07/15 12:33:15;;;;;;;0.80;0.80;;;20.40;99.90;;;;;;5028033;28;20432;-58
2021/07/15 12:35:41;;;;;;;1.73;1.00;;;20.70;97.80;;;;;;5039764;28;20434;-58
2021/07/15 12:38:19;;;;;;;0.87;0.87;;;20.90;98.70;;;;;;5043684;28;20503;-58
2021/07/15 12:40:45;;;;;;;1.00;1.00;;;21.20;98.90;;;;;;5015975;28;20431;-59
2021/07/15 12:43:21;;;;;;;0.80;0.80;;;21.30;96.20;;;;;;5019986;28;20545;-58
2021/07/15 12:45:50;;;;;;;4.10;0.80;;;21.20;96.00;;;;;;5038662;28;20433;-59
2021/07/15 12:48:17;;;;;;;1.13;1.10;;;21.00;96.10;;;;;;5032321;28;20949;-58
2021/07/15 12:50:46;;;;;;;1.30;0.97;;;20.80;95.80;;;;;;5038761;28;20880;-58
2021/07/15 12:53:15;;;;;;;1.17;1.07;;;20.60;97.80;;;;;;5038815;28;20865;-57
2021/07/15 12:55:42;;;;;;;1.03;0.90;;;20.30;97.80;;;;;;5046401;28;20505;-58
2021/07/15 12:58:09;;;;;;;3.07;0.80;;;20.10;98.80;;;;;;5034709;28;20470;-58
2021/07/15 13:00:36;;;;;;;1.83;1.43;;;19.90;99.90;;;;;;5029615;28;20433;-60